createdAt,value
2022-09-09T00:00:19.088Z,15.00
2022-09-09T00:02:59.866Z,15.10
2022-09-09T00:05:34.885Z,15.10
2022-09-09T00:08:06.629Z,15.10
2022-09-09T00:10:45.146Z,15.10
2022-09-09T00:13:21.722Z,15.20
2022-09-09T00:16:00.342Z,15.20
2022-09-09T00:18:41.126Z,15.10
2022-09-09T00:21:19.353Z,15.10
2022-09-09T00:23:53.233Z,15.10
2022-09-09T00:26:34.738Z,14.90
2022-09-09T00:29:08.011Z,14.90
2022-09-09T00:31:38.259Z,14.90
2022-09-09T00:34:17.039Z,14.80
2022-09-09T00:36:52.542Z,14.90
2022-09-09T00:39:32.145Z,14.90
2022-09-09T00:42:14.872Z,14.90
2022-09-09T00:44:58.521Z,14.90
2022-09-09T00:47:59.096Z,14.90
2022-09-09T00:50:50.926Z,14.90
2022-09-09T00:53:31.037Z,14.80
2022-09-09T00:56:10.850Z,14.80
2022-09-09T00:58:40.510Z,14.80
2022-09-09T01:01:14.449Z,14.80
2022-09-09T01:03:49.965Z,14.80
2022-09-09T01:06:24.713Z,14.80
2022-09-09T01:09:18.204Z,14.80
2022-09-09T01:12:07.347Z,14.80
2022-09-09T01:14:44.145Z,14.70
2022-09-09T01:17:18.451Z,14.70
2022-09-09T01:20:06.614Z,14.70
2022-09-09T01:22:42.813Z,14.60
2022-09-09T01:25:32.711Z,14.60
2022-09-09T01:28:09.273Z,14.70
2022-09-09T01:30:41.616Z,14.80
2022-09-09T01:33:15.340Z,14.90
2022-09-09T01:35:51.915Z,14.60
2022-09-09T01:38:21.648Z,14.50
2022-09-09T01:40:53.115Z,14.50
2022-09-09T01:43:25.813Z,14.60
2022-09-09T01:45:57.456Z,14.70
2022-09-09T01:48:27.236Z,14.70
2022-09-09T01:50:55.823Z,14.80
2022-09-09T01:53:25.661Z,14.80
2022-09-09T01:56:04.821Z,14.80
2022-09-09T01:58:46.125Z,14.90
2022-09-09T02:01:25.427Z,14.90
2022-09-09T02:03:56.594Z,14.90
2022-09-09T02:06:31.142Z,14.90
2022-09-09T02:09:01.373Z,14.90
2022-09-09T02:11:31.832Z,14.90
2022-09-09T02:14:04.833Z,14.80
2022-09-09T02:16:40.270Z,14.70
2022-09-09T02:19:13.785Z,14.80
2022-09-09T02:21:48.519Z,14.70
2022-09-09T02:24:18.642Z,14.60
2022-09-09T02:26:50.502Z,14.70
2022-09-09T02:29:23.837Z,14.70
2022-09-09T02:31:58.286Z,14.60
2022-09-09T02:34:35.698Z,14.60
2022-09-09T02:37:07.453Z,14.60
2022-09-09T02:39:36.911Z,14.60
2022-09-09T02:42:06.857Z,14.60
2022-09-09T02:44:37.857Z,14.60
2022-09-09T02:47:23.037Z,14.60
2022-09-09T02:50:03.068Z,14.60
2022-09-09T02:52:39.553Z,14.50
2022-09-09T02:55:19.216Z,14.50
2022-09-09T02:57:51.470Z,14.40
2022-09-09T03:00:29.068Z,14.40
2022-09-09T03:03:02.842Z,14.40
2022-09-09T03:05:33.040Z,14.40
2022-09-09T03:08:03.746Z,14.30
2022-09-09T03:10:34.535Z,14.40
2022-09-09T03:13:05.613Z,14.30
2022-09-09T03:15:37.121Z,14.40
2022-09-09T03:18:05.502Z,14.30
2022-09-09T03:20:33.828Z,14.30
2022-09-09T03:23:03.569Z,14.30
2022-09-09T03:25:34.635Z,14.30
2022-09-09T03:28:04.070Z,14.40
2022-09-09T03:30:32.280Z,14.30
2022-09-09T03:33:15.866Z,14.30
2022-09-09T03:35:57.628Z,14.40
2022-09-09T03:38:29.745Z,14.30
2022-09-09T03:41:09.488Z,14.30
2022-09-09T03:43:41.203Z,14.30
2022-09-09T03:46:16.456Z,14.40
2022-09-09T03:49:07.607Z,14.30
2022-09-09T03:51:37.739Z,14.30
2022-09-09T03:54:09.453Z,14.40
2022-09-09T03:56:42.771Z,14.40
2022-09-09T03:59:42.274Z,14.30
2022-09-09T04:05:23.511Z,14.10
2022-09-09T04:07:52.356Z,14.10
2022-09-09T04:10:25.368Z,14.00
2022-09-09T04:12:53.823Z,14.00
2022-09-09T04:15:24.540Z,14.00
2022-09-09T04:21:22.197Z,14.00
2022-09-09T04:27:19.181Z,14.00
2022-09-09T04:29:47.640Z,14.00
2022-09-09T04:32:16.390Z,14.10
2022-09-09T04:38:24.814Z,14.20
2022-09-09T04:40:56.140Z,14.40
2022-09-09T04:43:27.549Z,14.50
2022-09-09T04:46:02.964Z,14.50
2022-09-09T04:49:05.794Z,14.50
2022-09-09T04:51:36.967Z,14.50
2022-09-09T04:54:06.950Z,14.50
2022-09-09T04:56:38.927Z,14.40
2022-09-09T04:59:07.211Z,14.40
2022-09-09T05:01:42.176Z,14.30
2022-09-09T05:04:12.958Z,14.30
2022-09-09T05:07:12.223Z,14.30
2022-09-09T05:09:43.037Z,14.20
2022-09-09T05:12:20.412Z,14.20
2022-09-09T05:15:00.358Z,14.20
2022-09-09T05:18:04.770Z,14.30
2022-09-09T05:21:02.054Z,14.40
2022-09-09T05:26:53.401Z,14.50
2022-09-09T05:29:58.611Z,14.50
2022-09-09T05:36:26.596Z,14.50
2022-09-09T05:39:31.521Z,14.50
2022-09-09T05:42:31.296Z,14.60
2022-09-09T05:52:18.553Z,14.90
2022-09-09T05:54:50.246Z,15.20
2022-09-09T05:57:25.596Z,15.40
2022-09-09T06:06:01.998Z,16.00
2022-09-09T06:08:40.848Z,16.00
2022-09-09T06:11:22.585Z,15.90
2022-09-09T06:13:52.627Z,16.00
2022-09-09T06:16:24.122Z,16.10
2022-09-09T06:18:53.323Z,16.20
2022-09-09T06:22:01.988Z,16.20
2022-09-09T06:24:41.926Z,16.10
2022-09-09T06:27:40.981Z,16.10
2022-09-09T06:30:18.765Z,16.10
2022-09-09T06:32:54.895Z,16.10
2022-09-09T06:35:37.511Z,16.20
2022-09-09T06:38:06.850Z,16.10
2022-09-09T06:40:46.865Z,16.10
2022-09-09T06:43:18.858Z,16.40
2022-09-09T06:49:19.829Z,16.50
2022-09-09T06:51:51.274Z,15.90
2022-09-09T06:54:20.943Z,15.90
2022-09-09T06:56:51.222Z,16.20
2022-09-09T06:59:40.011Z,16.40
2022-09-09T07:02:41.941Z,16.70
2022-09-09T07:05:59.346Z,16.80
2022-09-09T07:08:42.776Z,16.60
2022-09-09T07:11:42.953Z,16.80
2022-09-09T07:14:52.191Z,17.00
2022-09-09T07:17:31.302Z,17.10
2022-09-09T07:20:07.236Z,18.70
2022-09-09T07:22:43.477Z,21.40
2022-09-09T07:25:12.515Z,20.20
2022-09-09T07:27:42.405Z,18.30
2022-09-09T07:30:47.454Z,18.60
2022-09-09T07:34:00.884Z,19.60
2022-09-09T07:36:49.175Z,18.20
2022-09-09T07:39:35.278Z,17.70
2022-09-09T07:43:06.582Z,17.60
2022-09-09T07:46:02.307Z,17.70
2022-09-09T07:48:35.552Z,17.40
2022-09-09T07:51:12.677Z,17.30
2022-09-09T07:53:41.404Z,17.20
2022-09-09T07:56:14.245Z,17.20
2022-09-09T07:58:43.534Z,17.00
2022-09-09T08:01:28.226Z,16.90
2022-09-09T08:04:02.193Z,16.80
2022-09-09T08:06:33.466Z,16.90
2022-09-09T08:09:03.120Z,16.70
2022-09-09T08:11:39.133Z,16.70
2022-09-09T08:14:17.769Z,17.00
2022-09-09T08:20:19.495Z,16.90
2022-09-09T08:22:49.151Z,16.80
2022-09-09T08:25:17.684Z,17.00
2022-09-09T08:31:08.456Z,17.30
2022-09-09T08:33:40.347Z,17.30
2022-09-09T08:36:23.461Z,17.80
2022-09-09T08:39:02.487Z,17.40
2022-09-09T08:45:59.280Z,17.10
2022-09-09T08:48:47.296Z,18.30
2022-09-09T08:51:21.309Z,18.90
2022-09-09T08:53:55.413Z,18.70
2022-09-09T08:56:30.682Z,18.50
2022-09-09T08:59:04.151Z,19.30
2022-09-09T09:01:52.459Z,18.20
2022-09-09T09:08:39.314Z,18.20
2022-09-09T09:17:43.905Z,19.60
2022-09-09T09:20:16.545Z,19.20
2022-09-09T09:22:57.179Z,18.70
2022-09-09T09:25:33.476Z,18.20
2022-09-09T09:28:07.264Z,18.80
2022-09-09T09:41:04.822Z,19.70
2022-09-09T09:50:30.421Z,18.60
2022-09-09T09:54:04.944Z,19.00
2022-09-09T10:00:19.284Z,19.40
2022-09-09T10:03:37.669Z,19.50
2022-09-09T10:06:39.631Z,19.50
2022-09-09T10:10:01.385Z,19.60
2022-09-09T10:12:55.340Z,19.30
2022-09-09T10:16:14.480Z,19.60
2022-09-09T10:30:11.220Z,20.00
2022-09-09T10:35:51.121Z,19.60
2022-09-09T10:38:44.504Z,20.10
2022-09-09T10:41:26.292Z,19.40
2022-09-09T10:44:32.094Z,19.70
2022-09-09T10:47:42.552Z,19.70
2022-09-09T10:54:48.178Z,20.20
2022-09-09T11:00:32.823Z,19.70
2022-09-09T11:03:40.163Z,20.40
2022-09-09T11:16:45.716Z,20.00
2022-09-09T11:20:01.928Z,19.80
2022-09-09T11:23:28.743Z,19.40
2022-09-09T11:26:38.744Z,19.30
2022-09-09T11:29:51.746Z,18.30
2022-09-09T11:36:14.913Z,18.30
2022-09-09T11:39:15.761Z,18.10
2022-09-09T11:41:49.101Z,18.90
2022-09-09T11:44:21.554Z,19.00
2022-09-09T11:47:12.684Z,19.20
2022-09-09T11:49:51.203Z,19.80
2022-09-09T11:52:31.474Z,20.00
2022-09-09T11:55:42.440Z,20.10
2022-09-09T11:58:33.419Z,19.30
2022-09-09T12:01:15.215Z,19.50
2022-09-09T12:03:55.077Z,19.50
2022-09-09T12:13:17.817Z,19.60
2022-09-09T12:15:57.471Z,19.50
2022-09-09T12:18:46.734Z,19.70
2022-09-09T12:21:54.264Z,19.80
2022-09-09T12:24:58.892Z,20.40
2022-09-09T12:27:42.082Z,20.20
2022-09-09T12:37:22.759Z,21.10
2022-09-09T12:46:59.235Z,21.60
2022-09-09T12:49:35.179Z,21.10
2022-09-09T12:52:09.130Z,20.80
2022-09-09T12:54:38.940Z,20.90
2022-09-09T12:57:08.143Z,20.80
2022-09-09T12:59:43.073Z,21.10
2022-09-09T13:02:24.058Z,20.80
2022-09-09T13:05:30.280Z,20.90
2022-09-09T13:08:11.265Z,21.00
2022-09-09T13:10:53.146Z,21.30
2022-09-09T13:13:31.364Z,20.80
2022-09-09T13:16:03.282Z,20.80
2022-09-09T13:18:48.509Z,20.90
2022-09-09T13:25:21.225Z,21.10
2022-09-09T13:31:33.911Z,21.50
2022-09-09T13:34:40.043Z,21.20
2022-09-09T13:40:35.597Z,21.40
2022-09-09T13:43:11.521Z,21.20
2022-09-09T13:46:22.341Z,20.20
2022-09-09T13:52:34.020Z,20.40
2022-09-09T13:55:03.218Z,20.20
2022-09-09T13:57:38.875Z,20.10
2022-09-09T14:03:43.660Z,20.00
2022-09-09T14:06:15.707Z,19.90
2022-09-09T14:09:28.965Z,20.10
2022-09-09T14:12:47.735Z,19.90
2022-09-09T14:15:30.933Z,19.80
2022-09-09T14:17:59.994Z,19.80
2022-09-09T14:20:28.301Z,19.90
2022-09-09T14:23:03.244Z,20.00
2022-09-09T14:25:34.566Z,19.90
2022-09-09T14:28:03.653Z,20.00
2022-09-09T14:30:32.212Z,19.90
2022-09-09T14:33:01.231Z,20.10
2022-09-09T14:35:32.249Z,19.90
2022-09-09T14:38:19.085Z,19.80
2022-09-09T14:40:51.794Z,19.90
2022-09-09T14:43:44.922Z,19.60
2022-09-09T14:46:17.625Z,19.80
2022-09-09T14:48:50.431Z,19.60
2022-09-09T14:57:53.718Z,19.20
2022-09-09T15:00:23.802Z,19.20
2022-09-09T15:02:54.665Z,19.50
2022-09-09T15:05:31.163Z,18.90
2022-09-09T15:11:40.151Z,19.10
2022-09-09T15:14:22.336Z,19.60
2022-09-09T15:16:59.457Z,19.60
2022-09-09T15:19:48.834Z,19.60
2022-09-09T15:22:48.776Z,19.40
2022-09-09T15:25:20.252Z,19.70
2022-09-09T15:27:57.632Z,19.40
2022-09-09T15:30:34.224Z,19.70
2022-09-09T15:33:03.020Z,19.70
2022-09-09T15:35:35.146Z,19.60
2022-09-09T15:40:56.627Z,19.60
2022-09-09T15:43:25.219Z,19.60
2022-09-09T15:46:05.595Z,19.30
2022-09-09T15:49:02.372Z,19.00
2022-09-09T15:51:50.728Z,19.30
2022-09-09T15:54:21.990Z,19.40
2022-09-09T15:56:57.340Z,19.20
2022-09-09T15:59:29.079Z,19.10
2022-09-09T16:05:38.705Z,19.00
2022-09-09T16:08:10.712Z,18.80
2022-09-09T16:10:39.480Z,18.90
2022-09-09T16:16:58.554Z,18.70
2022-09-09T16:19:38.812Z,18.80
2022-09-09T16:22:41.157Z,18.70
2022-09-09T16:25:49.385Z,18.80
2022-09-09T16:31:42.763Z,18.60
2022-09-09T16:34:43.157Z,18.70
2022-09-09T16:37:12.570Z,18.70
2022-09-09T16:39:56.483Z,18.60
2022-09-09T16:42:54.456Z,18.50
2022-09-09T16:46:04.447Z,18.30
2022-09-09T16:48:53.704Z,18.30
2022-09-09T16:51:45.028Z,18.30
2022-09-09T17:00:44.085Z,18.30
2022-09-09T17:03:15.911Z,18.30
2022-09-09T17:05:48.278Z,18.30
2022-09-09T17:08:18.653Z,18.20
2022-09-09T17:10:48.630Z,18.10
2022-09-09T17:13:51.122Z,18.10
2022-09-09T17:20:08.072Z,18.00
2022-09-09T17:22:43.524Z,18.00
2022-09-09T17:25:44.454Z,17.90
2022-09-09T17:28:59.124Z,17.90
2022-09-09T17:32:02.806Z,17.90
2022-09-09T17:41:14.754Z,17.70
2022-09-09T17:43:56.364Z,17.70
2022-09-09T17:46:44.719Z,17.60
2022-09-09T17:49:30.196Z,17.50
2022-09-09T17:52:09.345Z,17.50
2022-09-09T17:54:42.884Z,17.40
2022-09-09T18:00:56.309Z,17.40
2022-09-09T18:03:26.659Z,17.40
2022-09-09T18:06:03.317Z,17.40
2022-09-09T18:08:41.240Z,17.30
2022-09-09T18:14:57.736Z,17.20
2022-09-09T18:17:41.981Z,17.10
2022-09-09T18:20:12.583Z,17.10
2022-09-09T18:22:43.531Z,17.20
2022-09-09T18:25:13.042Z,17.00
2022-09-09T18:27:42.240Z,17.10
2022-09-09T18:30:17.766Z,17.00
2022-09-09T18:32:55.088Z,17.00
2022-09-09T18:39:13.832Z,16.90
2022-09-09T18:41:44.946Z,16.90
2022-09-09T18:44:17.464Z,16.80
2022-09-09T18:46:49.789Z,16.80
2022-09-09T18:49:21.850Z,16.70
2022-09-09T18:57:46.132Z,16.60
2022-09-09T19:00:25.321Z,16.60
2022-09-09T19:02:57.318Z,16.60
2022-09-09T19:09:37.893Z,16.50
2022-09-09T19:12:50.487Z,16.50
2022-09-09T19:15:23.972Z,16.50
2022-09-09T19:17:57.414Z,16.50
2022-09-09T19:20:28.367Z,16.50
2022-09-09T19:23:02.309Z,16.40
2022-09-09T19:25:33.128Z,16.40
2022-09-09T19:28:09.524Z,16.30
2022-09-09T19:30:58.381Z,16.40
2022-09-09T19:33:36.024Z,16.30
2022-09-09T19:36:22.691Z,16.30
2022-09-09T19:39:11.501Z,16.30
2022-09-09T19:42:06.365Z,16.30
2022-09-09T19:48:04.211Z,16.30
2022-09-09T19:50:32.891Z,16.40
2022-09-09T19:53:05.024Z,16.40
2022-09-09T19:55:41.732Z,16.30
2022-09-09T19:58:11.791Z,16.30
2022-09-09T20:00:41.326Z,16.20
2022-09-09T20:03:19.246Z,16.10
2022-09-09T20:05:49.840Z,16.00
2022-09-09T20:08:21.193Z,16.00
2022-09-09T20:10:53.709Z,16.00
2022-09-09T20:13:26.712Z,16.10
2022-09-09T20:22:35.168Z,16.10
2022-09-09T20:32:50.068Z,15.90
2022-09-09T20:35:37.413Z,15.90
2022-09-09T20:38:25.145Z,15.90
2022-09-09T20:40:57.259Z,16.00
2022-09-09T20:43:29.856Z,15.90
2022-09-09T20:46:09.407Z,15.70
2022-09-09T20:48:37.800Z,15.50
2022-09-09T20:51:10.644Z,15.60
2022-09-09T20:53:40.378Z,15.60
2022-09-09T20:56:09.229Z,15.60
2022-09-09T20:58:41.663Z,15.60
2022-09-09T21:01:15.830Z,15.60
2022-09-09T21:03:45.075Z,15.60
2022-09-09T21:06:17.601Z,15.60
2022-09-09T21:08:47.620Z,15.60
2022-09-09T21:11:21.430Z,15.50
2022-09-09T21:13:55.498Z,15.50
2022-09-09T21:16:25.085Z,15.60
2022-09-09T21:18:54.464Z,15.50
2022-09-09T21:21:27.540Z,15.50
2022-09-09T21:24:00.929Z,15.40
2022-09-09T21:26:35.008Z,15.40
2022-09-09T21:29:05.240Z,15.40
2022-09-09T21:31:35.453Z,15.40
2022-09-09T21:34:07.838Z,15.40
2022-09-09T21:36:41.606Z,15.40
2022-09-09T21:39:11.595Z,15.50
2022-09-09T21:41:54.404Z,15.50
2022-09-09T21:44:23.342Z,15.40
2022-09-09T21:46:53.893Z,15.40
2022-09-09T21:49:23.003Z,15.40
2022-09-09T21:51:55.934Z,15.40
2022-09-09T21:54:29.669Z,15.40
2022-09-09T21:57:25.067Z,15.30
2022-09-09T22:00:27.972Z,15.30
2022-09-09T22:03:05.635Z,15.20
2022-09-09T22:05:35.522Z,15.20
2022-09-09T22:08:06.050Z,15.10
2022-09-09T22:10:40.387Z,15.20
2022-09-09T22:13:21.759Z,15.30
2022-09-09T22:15:54.583Z,15.30
2022-09-09T22:18:31.807Z,15.20
2022-09-09T22:21:01.716Z,15.10
2022-09-09T22:23:32.578Z,15.20
2022-09-09T22:26:01.320Z,15.20
2022-09-09T22:28:31.577Z,15.10
2022-09-09T22:31:00.847Z,15.10
2022-09-09T22:33:32.951Z,15.20
2022-09-09T22:36:05.340Z,15.20
2022-09-09T22:38:37.124Z,15.20
2022-09-09T22:41:09.825Z,15.10
2022-09-09T22:43:42.708Z,15.20
2022-09-09T22:46:11.703Z,15.20
2022-09-09T22:48:44.155Z,15.20
2022-09-09T22:51:19.916Z,15.10
2022-09-09T22:53:53.737Z,14.90
2022-09-09T22:56:22.109Z,14.90
2022-09-09T22:58:55.687Z,14.90
2022-09-09T23:01:26.125Z,14.70
2022-09-09T23:03:59.252Z,14.80
2022-09-09T23:06:29.409Z,14.80
2022-09-09T23:09:01.210Z,14.80
2022-09-09T23:11:32.436Z,14.70
2022-09-09T23:14:03.570Z,14.80
2022-09-09T23:16:34.781Z,14.80
2022-09-09T23:19:07.140Z,14.80
2022-09-09T23:21:37.916Z,14.70
2022-09-09T23:24:10.373Z,14.70
2022-09-09T23:26:39.163Z,14.70
2022-09-09T23:29:08.475Z,14.80
2022-09-09T23:31:38.575Z,14.90
2022-09-09T23:34:07.637Z,14.80
2022-09-09T23:36:37.697Z,14.70
2022-09-09T23:39:08.538Z,14.60
2022-09-09T23:41:38.057Z,14.50
2022-09-09T23:44:07.383Z,14.60
2022-09-09T23:46:37.192Z,14.50
2022-09-09T23:49:09.678Z,14.40
2022-09-09T23:51:39.175Z,14.50
2022-09-09T23:54:09.999Z,14.50
2022-09-09T23:56:46.049Z,14.50
2022-09-09T23:59:16.435Z,14.50
